createdAt,value
2019-05-29T00:00:26.588Z,11.37
2019-05-29T00:01:26.550Z,11.39
2019-05-29T00:02:26.570Z,11.32
2019-05-29T00:03:26.530Z,11.35
2019-05-29T00:04:26.518Z,11.28
2019-05-29T00:05:26.532Z,11.32
2019-05-29T00:06:26.496Z,11.35
2019-05-29T00:07:26.491Z,11.33
2019-05-29T00:08:26.470Z,11.24
2019-05-29T00:09:26.463Z,11.39
2019-05-29T00:10:26.456Z,11.25
2019-05-29T00:11:26.460Z,11.39
2019-05-29T00:12:26.424Z,11.25
2019-05-29T00:13:26.414Z,11.24
2019-05-29T00:14:27.617Z,11.28
2019-05-29T00:15:26.390Z,11.19
2019-05-29T00:16:26.394Z,11.22
2019-05-29T00:17:26.398Z,11.22
2019-05-29T00:18:26.360Z,11.11
2019-05-29T00:19:26.346Z,11.14
2019-05-29T00:20:26.348Z,11.19
2019-05-29T00:21:26.318Z,11.15
2019-05-29T00:22:26.328Z,11.15
2019-05-29T00:23:26.302Z,11.14
2019-05-29T00:24:26.315Z,11.21
2019-05-29T00:25:26.298Z,11.21
2019-05-29T00:26:26.270Z,11.15
2019-05-29T00:27:26.264Z,11.14
2019-05-29T00:28:26.259Z,11.22
2019-05-29T00:29:26.249Z,11.25
2019-05-29T00:30:26.224Z,11.10
2019-05-29T00:31:26.212Z,11.14
2019-05-29T00:32:26.196Z,11.11
2019-05-29T00:33:26.207Z,11.10
2019-05-29T00:34:26.183Z,11.24
2019-05-29T00:35:26.184Z,11.18
2019-05-29T00:36:26.152Z,11.11
2019-05-29T00:37:26.148Z,11.15
2019-05-29T00:38:26.139Z,11.11
2019-05-29T00:39:26.118Z,11.27
2019-05-29T00:40:26.107Z,11.21
2019-05-29T00:41:26.096Z,11.24
2019-05-29T00:42:26.091Z,11.27
2019-05-29T00:43:26.072Z,11.27
2019-05-29T00:44:34.277Z,11.18
2019-05-29T00:45:27.055Z,11.24
2019-05-29T00:46:26.048Z,11.10
2019-05-29T00:47:26.028Z,11.24
2019-05-29T00:48:26.018Z,11.14
2019-05-29T00:49:26.015Z,11.22
2019-05-29T00:50:26.010Z,11.15
2019-05-29T00:51:25.982Z,11.15
2019-05-29T00:52:25.977Z,11.17
2019-05-29T00:53:25.957Z,11.11
2019-05-29T00:54:25.948Z,11.11
2019-05-29T00:55:25.947Z,11.11
2019-05-29T00:56:25.931Z,11.11
2019-05-29T00:57:25.914Z,11.10
2019-05-29T00:58:25.906Z,11.17
2019-05-29T00:59:25.888Z,11.11
2019-05-29T01:00:25.889Z,11.10
2019-05-29T01:01:25.886Z,11.09
2019-05-29T01:02:25.856Z,11.04
2019-05-29T01:03:25.864Z,11.06
2019-05-29T01:04:25.838Z,11.10
2019-05-29T01:05:25.831Z,10.97
2019-05-29T01:06:25.823Z,10.94
2019-05-29T01:07:25.800Z,10.88
2019-05-29T01:08:25.792Z,10.92
2019-05-29T01:09:25.781Z,10.92
2019-05-29T01:10:25.760Z,10.91
2019-05-29T01:11:25.773Z,10.88
2019-05-29T01:12:25.740Z,10.92
2019-05-29T01:13:25.732Z,10.94
2019-05-29T01:14:25.716Z,10.82
2019-05-29T01:15:25.710Z,10.84
2019-05-29T01:16:25.722Z,10.78
2019-05-29T01:17:25.686Z,10.79
2019-05-29T01:18:25.678Z,10.81
2019-05-29T01:19:25.668Z,10.76
2019-05-29T01:20:25.654Z,10.76
2019-05-29T01:21:25.640Z,10.74
2019-05-29T01:22:25.639Z,10.78
2019-05-29T01:23:25.635Z,10.71
2019-05-29T01:24:25.686Z,10.61
2019-05-29T01:25:25.592Z,10.68
2019-05-29T01:26:25.579Z,10.67
2019-05-29T01:27:25.568Z,10.60
2019-05-29T01:28:25.559Z,10.53
2019-05-29T01:29:25.549Z,10.63
2019-05-29T01:30:25.552Z,10.53
2019-05-29T01:31:25.525Z,10.44
2019-05-29T01:32:25.558Z,10.55
2019-05-29T01:33:25.521Z,10.45
2019-05-29T01:34:25.532Z,10.44
2019-05-29T01:35:25.491Z,10.36
2019-05-29T01:36:25.474Z,10.42
2019-05-29T01:37:26.447Z,10.34
2019-05-29T01:38:25.445Z,10.29
2019-05-29T01:39:25.439Z,10.29
2019-05-29T01:40:28.315Z,10.30
2019-05-29T01:41:25.425Z,10.33
2019-05-29T01:42:25.410Z,10.30
2019-05-29T01:43:25.389Z,10.23
2019-05-29T01:44:25.384Z,10.20
2019-05-29T01:45:25.434Z,10.26
2019-05-29T01:46:25.355Z,10.29
2019-05-29T01:47:25.349Z,10.22
2019-05-29T01:48:25.336Z,10.22
2019-05-29T01:49:25.321Z,10.18
2019-05-29T01:50:25.312Z,10.20
2019-05-29T01:51:25.307Z,10.23
2019-05-29T01:52:25.290Z,10.22
2019-05-29T01:53:25.277Z,10.20
2019-05-29T01:54:25.326Z,10.30
2019-05-29T01:55:25.253Z,10.23
2019-05-29T01:56:25.254Z,10.33
2019-05-29T01:57:25.246Z,10.18
2019-05-29T01:58:25.224Z,10.34
2019-05-29T01:59:25.281Z,10.30
2019-05-29T02:00:25.198Z,10.26
2019-05-29T02:01:25.191Z,10.34
2019-05-29T02:02:25.208Z,10.26
2019-05-29T02:03:25.166Z,10.42
2019-05-29T02:04:25.333Z,10.36
2019-05-29T02:05:25.146Z,10.36
2019-05-29T02:06:25.131Z,10.42
2019-05-29T02:07:25.118Z,10.44
2019-05-29T02:08:25.111Z,10.44
2019-05-29T02:09:25.104Z,10.33
2019-05-29T02:10:26.254Z,10.40
2019-05-29T02:11:25.080Z,10.36
2019-05-29T02:12:25.067Z,10.38
2019-05-29T02:13:25.051Z,10.40
2019-05-29T02:14:25.043Z,10.38
2019-05-29T02:15:32.158Z,10.40
2019-05-29T02:16:26.934Z,10.42
2019-05-29T02:17:25.015Z,10.47
2019-05-29T02:18:25.148Z,10.53
2019-05-29T02:19:25.040Z,10.41
2019-05-29T02:20:25.254Z,10.44
2019-05-29T02:21:24.959Z,10.48
2019-05-29T02:22:25.104Z,10.45
2019-05-29T02:23:24.940Z,10.45
2019-05-29T02:24:25.419Z,10.42
2019-05-29T02:25:24.917Z,10.47
2019-05-29T02:26:24.903Z,10.53
2019-05-29T02:27:25.582Z,10.44
2019-05-29T02:28:24.881Z,10.41
2019-05-29T02:29:24.956Z,10.48
2019-05-29T02:30:27.825Z,10.45
2019-05-29T02:31:27.041Z,10.44
2019-05-29T02:32:25.599Z,10.56
2019-05-29T02:33:26.336Z,10.48
2019-05-29T02:34:25.539Z,10.59
2019-05-29T02:35:26.840Z,10.52
2019-05-29T02:36:26.650Z,10.47
2019-05-29T02:37:26.118Z,10.48
2019-05-29T02:38:25.481Z,10.45
2019-05-29T02:39:25.649Z,10.47
2019-05-29T02:40:26.359Z,10.51
2019-05-29T02:41:26.200Z,10.53
2019-05-29T02:42:25.153Z,10.47
2019-05-29T02:43:26.022Z,10.47
2019-05-29T02:44:25.417Z,10.48
2019-05-29T02:45:45.865Z,10.44
2019-05-29T02:46:26.411Z,10.47
2019-05-29T02:47:26.001Z,10.48
2019-05-29T02:48:25.079Z,10.47
2019-05-29T02:49:25.773Z,10.48
2019-05-29T02:50:26.523Z,10.45
2019-05-29T02:51:26.367Z,10.47
2019-05-29T02:52:26.109Z,10.51
2019-05-29T02:53:26.153Z,10.53
2019-05-29T02:54:25.412Z,10.53
2019-05-29T02:55:24.641Z,10.38
2019-05-29T02:56:24.891Z,10.38
2019-05-29T02:57:24.708Z,10.40
2019-05-29T02:58:25.820Z,10.41
2019-05-29T02:59:25.642Z,10.42
2019-05-29T03:00:25.794Z,10.48
2019-05-29T03:01:25.522Z,10.42
2019-05-29T03:02:25.539Z,10.42
2019-05-29T03:03:26.818Z,10.42
2019-05-29T03:04:26.177Z,10.38
2019-05-29T03:05:25.946Z,10.48
2019-05-29T03:06:26.089Z,10.44
2019-05-29T03:07:26.142Z,10.51
2019-05-29T03:08:24.831Z,10.48
2019-05-29T03:09:24.734Z,10.60
2019-05-29T03:10:24.817Z,10.63
2019-05-29T03:11:25.177Z,10.53
2019-05-29T03:12:25.016Z,10.60
2019-05-29T03:13:25.522Z,10.67
2019-05-29T03:14:25.272Z,10.60
2019-05-29T03:15:25.585Z,10.51
2019-05-29T03:16:26.095Z,10.53
2019-05-29T03:17:25.685Z,10.47
2019-05-29T03:18:25.709Z,10.41
2019-05-29T03:19:25.796Z,10.55
2019-05-29T03:20:25.695Z,10.48
2019-05-29T03:21:25.941Z,10.55
2019-05-29T03:22:24.273Z,10.56
2019-05-29T03:23:24.372Z,10.59
2019-05-29T03:24:24.553Z,10.55
2019-05-29T03:25:24.402Z,10.56
2019-05-29T03:26:26.849Z,10.56
2019-05-29T03:27:25.593Z,10.45
2019-05-29T03:28:25.608Z,10.47
2019-05-29T03:29:25.766Z,10.48
2019-05-29T03:30:26.962Z,10.41
2019-05-29T03:31:29.924Z,10.34
2019-05-29T03:32:28.021Z,10.38
2019-05-29T03:33:30.453Z,10.38
2019-05-29T03:34:30.457Z,10.41
2019-05-29T03:35:28.360Z,10.45
2019-05-29T03:36:28.358Z,10.44
2019-05-29T03:37:26.271Z,10.34
2019-05-29T03:38:24.085Z,10.41
2019-05-29T03:39:24.080Z,10.40
2019-05-29T03:40:24.067Z,10.40
2019-05-29T03:41:24.059Z,10.38
2019-05-29T03:42:24.059Z,10.38
2019-05-29T03:43:24.141Z,10.36
2019-05-29T03:44:24.017Z,10.33
2019-05-29T03:45:24.010Z,10.32
2019-05-29T03:46:31.600Z,10.23
2019-05-29T03:47:26.787Z,10.26
2019-05-29T03:48:25.821Z,10.29
2019-05-29T03:49:23.969Z,10.30
2019-05-29T03:50:23.951Z,10.27
2019-05-29T03:51:23.943Z,10.27
2019-05-29T03:52:23.955Z,10.33
2019-05-29T03:53:23.931Z,10.32
2019-05-29T03:54:23.924Z,10.32
2019-05-29T03:55:23.896Z,10.27
2019-05-29T03:56:23.895Z,10.34
2019-05-29T03:57:23.869Z,10.36
2019-05-29T03:58:23.867Z,10.38
2019-05-29T03:59:23.875Z,10.33
2019-05-29T04:00:23.845Z,10.27
2019-05-29T04:01:23.879Z,10.30
2019-05-29T04:02:23.821Z,10.29
2019-05-29T04:03:23.809Z,10.33
2019-05-29T04:04:23.799Z,10.32
2019-05-29T04:05:23.775Z,10.33
2019-05-29T04:06:23.767Z,10.42
2019-05-29T04:07:23.765Z,10.34
2019-05-29T04:08:23.753Z,10.34
2019-05-29T04:09:23.745Z,10.33
2019-05-29T04:10:23.735Z,10.36
2019-05-29T04:11:23.727Z,10.29
2019-05-29T04:12:23.701Z,10.38
2019-05-29T04:13:23.689Z,10.36
2019-05-29T04:14:23.677Z,10.40
2019-05-29T04:15:23.681Z,10.32
2019-05-29T04:16:23.683Z,10.27
2019-05-29T04:17:23.647Z,10.36
2019-05-29T04:18:23.633Z,10.40
2019-05-29T04:19:23.625Z,10.42
2019-05-29T04:20:23.610Z,10.40
2019-05-29T04:21:23.605Z,10.42
2019-05-29T04:22:23.590Z,10.42
2019-05-29T04:23:23.574Z,10.45
2019-05-29T04:24:23.601Z,10.36
2019-05-29T04:25:23.556Z,10.45
2019-05-29T04:26:23.543Z,10.45
2019-05-29T04:27:23.547Z,10.41
2019-05-29T04:28:23.517Z,10.40
2019-05-29T04:29:23.532Z,10.45
2019-05-29T04:30:23.517Z,10.44
2019-05-29T04:31:23.485Z,10.44
2019-05-29T04:32:23.489Z,10.53
2019-05-29T04:33:23.467Z,10.44
2019-05-29T04:34:23.450Z,10.48
2019-05-29T04:35:23.437Z,10.47
2019-05-29T04:36:23.427Z,10.56
2019-05-29T04:37:23.425Z,10.53
2019-05-29T04:38:23.418Z,10.61
2019-05-29T04:39:23.392Z,10.66
2019-05-29T04:40:23.383Z,10.73
2019-05-29T04:41:23.371Z,10.74
2019-05-29T04:42:23.361Z,10.74
2019-05-29T04:43:23.356Z,10.79
2019-05-29T04:44:23.338Z,10.82
2019-05-29T04:45:23.327Z,10.89
2019-05-29T04:46:23.316Z,10.92
2019-05-29T04:47:23.306Z,10.92
2019-05-29T04:48:23.324Z,10.91
2019-05-29T04:49:23.320Z,11.04
2019-05-29T04:50:23.278Z,11.02
2019-05-29T04:51:23.255Z,11.04
2019-05-29T04:52:23.249Z,11.09
2019-05-29T04:53:23.233Z,11.07
2019-05-29T04:54:23.226Z,11.09
2019-05-29T04:55:23.244Z,11.15
2019-05-29T04:56:23.201Z,11.11
2019-05-29T04:57:23.192Z,11.15
2019-05-29T04:58:23.175Z,11.25
2019-05-29T04:59:23.174Z,11.24
2019-05-29T05:00:23.177Z,11.33
2019-05-29T05:01:23.139Z,11.40
2019-05-29T05:02:23.138Z,11.54
2019-05-29T05:03:23.122Z,11.62
2019-05-29T05:04:23.124Z,11.80
2019-05-29T05:05:23.109Z,11.76
2019-05-29T05:06:23.083Z,11.73
2019-05-29T05:07:23.168Z,11.61
2019-05-29T05:08:23.229Z,11.61
2019-05-29T05:09:23.079Z,11.61
2019-05-29T05:10:23.043Z,11.55
2019-05-29T05:11:23.049Z,11.49
2019-05-29T05:12:23.018Z,11.55
2019-05-29T05:13:23.014Z,11.65
2019-05-29T05:14:22.997Z,11.64
2019-05-29T05:15:22.998Z,11.73
2019-05-29T05:16:22.976Z,11.67
2019-05-29T05:17:26.182Z,11.73
2019-05-29T05:18:22.981Z,11.79
2019-05-29T05:19:22.960Z,11.76
2019-05-29T05:20:22.934Z,11.88
2019-05-29T05:21:22.920Z,11.94
2019-05-29T05:22:22.912Z,11.94
2019-05-29T05:23:43.916Z,12.07
2019-05-29T05:24:22.886Z,12.41
2019-05-29T05:25:22.874Z,13.03
2019-05-29T05:26:22.866Z,13.44
2019-05-29T05:27:22.859Z,13.79
2019-05-29T05:28:22.853Z,14.42
2019-05-29T05:29:22.825Z,14.27
2019-05-29T05:30:22.818Z,14.14
2019-05-29T05:31:22.800Z,13.82
2019-05-29T05:32:22.808Z,14.06
2019-05-29T05:33:22.835Z,14.24
2019-05-29T05:34:22.799Z,14.07
2019-05-29T05:35:22.759Z,14.24
2019-05-29T05:36:22.746Z,14.00
2019-05-29T05:37:22.755Z,13.92
2019-05-29T05:38:22.730Z,13.71
2019-05-29T05:39:23.227Z,13.69
2019-05-29T05:40:22.705Z,13.70
2019-05-29T05:41:22.693Z,13.59
2019-05-29T05:42:22.678Z,13.42
2019-05-29T05:43:24.491Z,13.44
2019-05-29T05:44:22.665Z,13.39
2019-05-29T05:45:22.656Z,13.25
2019-05-29T05:46:24.740Z,13.28
2019-05-29T05:47:22.647Z,13.22
2019-05-29T05:48:22.702Z,13.15
2019-05-29T05:49:22.596Z,13.26
2019-05-29T05:50:22.598Z,13.39
2019-05-29T05:51:22.603Z,13.48
2019-05-29T05:52:22.565Z,13.42
2019-05-29T05:53:22.557Z,13.48
2019-05-29T05:54:22.541Z,13.54
2019-05-29T05:55:22.540Z,13.62
2019-05-29T05:56:22.538Z,13.54
2019-05-29T05:57:22.514Z,13.48
2019-05-29T05:58:22.498Z,13.42
2019-05-29T05:59:22.502Z,13.45
2019-05-29T06:00:22.472Z,13.42
2019-05-29T06:01:22.474Z,13.46
2019-05-29T06:02:22.602Z,13.62
2019-05-29T06:03:22.494Z,13.64
2019-05-29T06:04:22.430Z,13.67
2019-05-29T06:05:22.418Z,13.73
2019-05-29T06:06:22.414Z,13.73
2019-05-29T06:07:22.422Z,13.73
2019-05-29T06:08:22.386Z,13.66
2019-05-29T06:09:22.384Z,13.46
2019-05-29T06:10:22.371Z,13.30
2019-05-29T06:11:22.361Z,13.14
2019-05-29T06:12:22.345Z,13.19
2019-05-29T06:13:22.324Z,13.08
2019-05-29T06:14:22.316Z,13.05
2019-05-29T06:15:22.308Z,12.93
2019-05-29T06:16:22.377Z,12.79
2019-05-29T06:17:22.286Z,12.71
2019-05-29T06:18:22.276Z,12.77
2019-05-29T06:19:22.264Z,12.75
2019-05-29T06:20:22.407Z,12.90
2019-05-29T06:21:22.235Z,12.87
2019-05-29T06:22:22.230Z,12.93
2019-05-29T06:23:22.227Z,12.87
2019-05-29T06:24:22.225Z,12.89
2019-05-29T06:25:22.207Z,12.86
2019-05-29T06:26:22.177Z,12.96
2019-05-29T06:27:22.172Z,12.97
2019-05-29T06:28:22.158Z,13.01
2019-05-29T06:29:22.154Z,12.95
2019-05-29T06:30:22.138Z,12.90
2019-05-29T06:31:22.122Z,12.85
2019-05-29T06:32:22.109Z,12.95
2019-05-29T06:33:22.208Z,12.75
2019-05-29T06:34:22.089Z,12.64
2019-05-29T06:35:22.090Z,12.68
2019-05-29T06:36:22.222Z,12.65
2019-05-29T06:37:22.060Z,12.53
2019-05-29T06:38:22.066Z,12.39
2019-05-29T06:39:22.032Z,12.46
2019-05-29T06:40:22.070Z,12.53
2019-05-29T06:41:22.014Z,12.54
2019-05-29T06:42:22.000Z,12.52
2019-05-29T06:43:21.989Z,12.50
2019-05-29T06:44:21.983Z,12.42
2019-05-29T06:45:21.964Z,12.41
2019-05-29T06:46:21.969Z,12.41
2019-05-29T06:47:21.949Z,12.37
2019-05-29T06:48:40.629Z,12.41
2019-05-29T06:49:22.919Z,12.42
2019-05-29T06:50:21.910Z,12.45
2019-05-29T06:51:21.901Z,12.41
2019-05-29T06:52:21.890Z,12.39
2019-05-29T06:53:21.879Z,12.34
2019-05-29T06:54:21.875Z,12.41
2019-05-29T06:55:21.862Z,12.35
2019-05-29T06:56:21.844Z,12.41
2019-05-29T06:57:25.794Z,12.46
2019-05-29T06:58:21.828Z,12.38
2019-05-29T06:59:21.812Z,12.42
2019-05-29T07:00:34.886Z,12.39
2019-05-29T07:01:22.788Z,12.53
2019-05-29T07:02:21.782Z,12.50
2019-05-29T07:03:21.774Z,12.54
2019-05-29T07:04:21.755Z,12.54
2019-05-29T07:05:21.742Z,12.54
2019-05-29T07:06:21.737Z,12.52
2019-05-29T07:07:21.724Z,12.53
2019-05-29T07:08:37.594Z,12.41
2019-05-29T07:09:22.700Z,12.54
2019-05-29T07:10:21.688Z,12.64
2019-05-29T07:11:21.675Z,12.60
2019-05-29T07:12:21.664Z,12.72
2019-05-29T07:13:21.661Z,12.79
2019-05-29T07:14:21.662Z,12.90
2019-05-29T07:15:21.634Z,12.95
2019-05-29T07:16:21.632Z,13.04
2019-05-29T07:17:21.616Z,13.11
2019-05-29T07:18:21.605Z,13.23
2019-05-29T07:19:34.370Z,13.25
2019-05-29T07:20:22.580Z,13.10
2019-05-29T07:21:21.566Z,13.15
2019-05-29T07:22:21.558Z,13.23
2019-05-29T07:23:21.565Z,13.39
2019-05-29T07:24:21.546Z,13.44
2019-05-29T07:25:21.530Z,13.36
2019-05-29T07:26:21.531Z,13.45
2019-05-29T07:27:21.496Z,13.51
2019-05-29T07:28:21.505Z,13.63
2019-05-29T07:29:21.476Z,13.54
2019-05-29T07:30:21.484Z,13.55
2019-05-29T07:31:21.465Z,13.39
2019-05-29T07:32:21.445Z,13.55
2019-05-29T07:33:21.433Z,13.70
2019-05-29T07:34:21.424Z,13.79
2019-05-29T07:35:21.409Z,13.88
2019-05-29T07:36:21.402Z,13.88
2019-05-29T07:37:21.406Z,13.79
2019-05-29T07:38:21.380Z,14.02
2019-05-29T07:39:21.366Z,14.12
2019-05-29T07:40:21.364Z,14.12
2019-05-29T07:41:21.344Z,14.29
2019-05-29T07:42:21.332Z,14.33
2019-05-29T07:43:21.315Z,14.39
2019-05-29T07:44:21.304Z,14.45
2019-05-29T07:45:21.292Z,14.40
2019-05-29T07:46:21.278Z,14.43
2019-05-29T07:47:21.277Z,14.58
2019-05-29T07:48:21.260Z,14.57
2019-05-29T07:49:35.871Z,14.52
2019-05-29T07:50:22.244Z,14.50
2019-05-29T07:51:21.228Z,14.55
2019-05-29T07:52:21.225Z,14.35
2019-05-29T07:53:21.204Z,14.28
2019-05-29T07:54:21.190Z,14.36
2019-05-29T07:55:23.668Z,14.22
2019-05-29T07:56:22.890Z,14.10
2019-05-29T07:57:21.166Z,14.02
2019-05-29T07:58:21.164Z,13.75
2019-05-29T07:59:21.194Z,13.66
2019-05-29T08:00:21.121Z,13.66
2019-05-29T08:01:21.112Z,13.67
2019-05-29T08:02:21.123Z,13.81
2019-05-29T08:03:21.086Z,13.81
2019-05-29T08:04:21.157Z,13.82
2019-05-29T08:05:21.064Z,13.79
2019-05-29T08:06:21.048Z,13.82
2019-05-29T08:07:21.043Z,13.82
2019-05-29T08:08:21.028Z,13.81
2019-05-29T08:09:21.041Z,13.78
2019-05-29T08:10:21.043Z,13.82
2019-05-29T08:11:20.997Z,13.82
2019-05-29T08:12:20.986Z,13.77
2019-05-29T08:13:20.976Z,13.89
2019-05-29T08:14:20.963Z,13.92
2019-05-29T08:15:20.960Z,13.84
2019-05-29T08:16:20.935Z,13.71
2019-05-29T08:17:20.928Z,13.66
2019-05-29T08:18:20.919Z,13.54
2019-05-29T08:19:20.966Z,13.54
2019-05-29T08:20:20.902Z,13.60
2019-05-29T08:21:20.906Z,13.75
2019-05-29T08:22:33.788Z,13.99
2019-05-29T08:23:21.859Z,14.10
2019-05-29T08:24:24.742Z,14.33
2019-05-29T08:25:20.862Z,14.51
2019-05-29T08:26:20.833Z,14.40
2019-05-29T08:27:20.808Z,14.52
2019-05-29T08:28:20.806Z,14.47
2019-05-29T08:29:20.788Z,14.47
2019-05-29T08:30:20.783Z,14.42
2019-05-29T08:31:20.771Z,14.36
2019-05-29T08:32:20.760Z,14.29
2019-05-29T08:33:20.773Z,14.25
2019-05-29T08:34:20.735Z,14.14
2019-05-29T08:35:20.727Z,14.15
2019-05-29T08:36:20.712Z,14.09
2019-05-29T08:37:20.699Z,14.10
2019-05-29T08:38:20.683Z,14.04
2019-05-29T08:39:35.572Z,14.20
2019-05-29T08:40:21.660Z,14.46
2019-05-29T08:41:20.730Z,14.54
2019-05-29T08:42:23.567Z,14.77
2019-05-29T08:43:20.663Z,14.88
2019-05-29T08:44:20.620Z,14.89
2019-05-29T08:45:20.600Z,14.80
2019-05-29T08:46:20.600Z,14.89
2019-05-29T08:47:20.584Z,14.83
2019-05-29T08:48:20.587Z,14.64
2019-05-29T08:49:20.586Z,14.45
2019-05-29T08:50:20.559Z,14.37
2019-05-29T08:51:20.537Z,14.32
2019-05-29T08:52:20.527Z,14.21
2019-05-29T08:53:20.531Z,14.27
2019-05-29T08:54:23.826Z,14.27
2019-05-29T08:55:20.513Z,14.45
2019-05-29T08:56:20.483Z,14.60
2019-05-29T08:57:20.472Z,14.70
2019-05-29T08:58:20.461Z,14.75
2019-05-29T08:59:20.450Z,14.89
2019-05-29T09:00:20.435Z,15.06
2019-05-29T09:01:20.419Z,15.03
2019-05-29T09:02:20.414Z,14.98
2019-05-29T09:03:20.407Z,15.01
2019-05-29T09:04:20.395Z,14.78
2019-05-29T09:05:20.386Z,14.70
2019-05-29T09:06:20.392Z,14.75
2019-05-29T09:07:20.360Z,14.81
2019-05-29T09:08:20.341Z,14.86
2019-05-29T09:09:20.333Z,14.72
2019-05-29T09:10:20.319Z,14.70
2019-05-29T09:11:20.325Z,14.64
2019-05-29T09:12:20.311Z,14.57
2019-05-29T09:13:20.285Z,14.43
2019-05-29T09:14:20.285Z,14.39
2019-05-29T09:15:21.738Z,14.37
2019-05-29T09:16:20.272Z,14.36
2019-05-29T09:17:20.241Z,14.40
2019-05-29T09:18:21.526Z,14.42
2019-05-29T09:19:21.072Z,14.58
2019-05-29T09:20:32.056Z,14.65
2019-05-29T09:21:21.228Z,14.47
2019-05-29T09:22:20.993Z,14.50
2019-05-29T09:23:20.922Z,14.52
2019-05-29T09:24:20.908Z,14.77
2019-05-29T09:25:21.172Z,14.72
2019-05-29T09:26:23.889Z,14.77
2019-05-29T09:27:21.270Z,14.89
2019-05-29T09:28:21.787Z,14.86
2019-05-29T09:29:23.311Z,14.95
2019-05-29T09:30:20.347Z,14.98
2019-05-29T09:31:20.379Z,14.96
2019-05-29T09:32:40.887Z,14.99
2019-05-29T09:33:21.857Z,14.92
2019-05-29T09:34:20.576Z,14.78
2019-05-29T09:35:21.568Z,14.78
2019-05-29T09:36:20.728Z,14.72
2019-05-29T09:37:20.481Z,14.72
2019-05-29T09:38:20.979Z,14.61
2019-05-29T09:39:21.066Z,14.61
2019-05-29T09:40:20.999Z,14.65
2019-05-29T09:41:21.707Z,14.60
2019-05-29T09:42:20.700Z,14.64
2019-05-29T09:43:23.148Z,14.73
2019-05-29T09:44:36.018Z,14.80
2019-05-29T09:45:21.560Z,15.02
2019-05-29T09:46:20.236Z,15.14
2019-05-29T09:47:20.273Z,15.39
2019-05-29T09:48:23.325Z,15.41
2019-05-29T09:49:21.814Z,15.51
2019-05-29T09:50:22.742Z,15.56
2019-05-29T09:51:21.558Z,15.54
2019-05-29T09:52:19.845Z,15.57
2019-05-29T09:53:19.838Z,15.56
2019-05-29T09:54:19.947Z,15.53
2019-05-29T09:55:19.828Z,15.49
2019-05-29T09:56:19.802Z,15.44
2019-05-29T09:57:19.788Z,15.34
2019-05-29T09:58:19.854Z,15.17
2019-05-29T09:59:19.765Z,15.16
2019-05-29T10:00:19.767Z,15.02
2019-05-29T10:01:24.133Z,14.89
2019-05-29T10:02:20.746Z,14.81
2019-05-29T10:03:19.717Z,14.73
2019-05-29T10:04:19.709Z,14.70
2019-05-29T10:05:19.700Z,14.80
2019-05-29T10:06:19.691Z,14.81
2019-05-29T10:07:19.698Z,14.89
2019-05-29T10:08:19.669Z,14.98
2019-05-29T10:09:19.654Z,14.99
2019-05-29T10:10:19.667Z,14.98
2019-05-29T10:11:19.634Z,14.98
2019-05-29T10:12:19.705Z,15.06
2019-05-29T10:13:19.612Z,15.13
2019-05-29T10:14:19.600Z,15.27
2019-05-29T10:15:19.586Z,15.41
2019-05-29T10:16:19.605Z,15.44
2019-05-29T10:17:19.571Z,15.44
2019-05-29T10:18:31.797Z,15.60
2019-05-29T10:19:20.541Z,15.44
2019-05-29T10:20:19.530Z,15.44
2019-05-29T10:21:19.521Z,15.36
2019-05-29T10:22:19.509Z,15.34
2019-05-29T10:23:20.168Z,15.28
2019-05-29T10:24:19.479Z,15.17
2019-05-29T10:25:19.467Z,15.10
2019-05-29T10:26:19.455Z,15.09
2019-05-29T10:27:19.458Z,14.96
2019-05-29T10:28:19.438Z,14.95
2019-05-29T10:29:19.439Z,15.03
2019-05-29T10:30:19.423Z,14.98
2019-05-29T10:31:19.407Z,15.10
2019-05-29T10:32:19.394Z,15.17
2019-05-29T10:33:19.397Z,15.31
2019-05-29T10:34:19.378Z,15.32
2019-05-29T10:35:19.360Z,15.35
2019-05-29T10:36:19.383Z,15.47
2019-05-29T10:37:19.395Z,15.60
2019-05-29T10:38:19.336Z,15.62
2019-05-29T10:39:19.340Z,15.57
2019-05-29T10:40:19.310Z,15.57
2019-05-29T10:41:19.312Z,15.46
2019-05-29T10:42:20.763Z,15.49
2019-05-29T10:43:33.237Z,15.43
2019-05-29T10:44:20.279Z,15.47
2019-05-29T10:45:19.304Z,15.47
2019-05-29T10:46:19.230Z,15.43
2019-05-29T10:47:19.224Z,15.39
2019-05-29T10:48:19.212Z,15.41
2019-05-29T10:49:19.194Z,15.51
2019-05-29T10:50:19.193Z,15.56
2019-05-29T10:51:19.243Z,15.57
2019-05-29T10:52:19.165Z,15.59
2019-05-29T10:53:19.209Z,15.49
2019-05-29T10:54:19.143Z,15.56
2019-05-29T10:55:19.131Z,15.49
2019-05-29T10:56:21.195Z,15.51
2019-05-29T10:57:19.107Z,15.43
2019-05-29T10:58:19.122Z,15.53
2019-05-29T10:59:19.085Z,15.60
2019-05-29T11:00:19.084Z,15.51
2019-05-29T11:01:19.091Z,15.59
2019-05-29T11:02:19.068Z,15.59
2019-05-29T11:03:19.061Z,15.62
2019-05-29T11:04:19.029Z,15.36
2019-05-29T11:05:19.058Z,15.27
2019-05-29T11:06:19.011Z,15.27
2019-05-29T11:07:19.007Z,15.25
2019-05-29T11:08:18.984Z,15.27
2019-05-29T11:09:18.972Z,15.28
2019-05-29T11:10:18.963Z,15.44
2019-05-29T11:11:18.951Z,15.49
2019-05-29T11:12:18.937Z,15.43
2019-05-29T11:13:18.931Z,15.44
2019-05-29T11:14:18.916Z,15.36
2019-05-29T11:15:21.668Z,15.35
2019-05-29T11:16:18.889Z,15.38
2019-05-29T11:17:18.883Z,15.39
2019-05-29T11:18:18.874Z,15.46
2019-05-29T11:19:18.859Z,15.50
2019-05-29T11:20:18.848Z,15.57
2019-05-29T11:21:18.841Z,15.69
2019-05-29T11:22:26.067Z,15.59
2019-05-29T11:23:19.826Z,15.68
2019-05-29T11:24:18.811Z,15.60
2019-05-29T11:25:23.536Z,15.49
2019-05-29T11:26:19.780Z,15.64
2019-05-29T11:27:18.767Z,15.65
2019-05-29T11:28:18.780Z,15.51
2019-05-29T11:29:18.757Z,15.65
2019-05-29T11:30:18.755Z,15.75
2019-05-29T11:31:18.727Z,15.71
2019-05-29T11:32:18.719Z,15.92
2019-05-29T11:33:18.720Z,15.94
2019-05-29T11:34:18.685Z,15.96
2019-05-29T11:35:18.682Z,15.90
2019-05-29T11:36:18.705Z,15.94
2019-05-29T11:37:18.659Z,16.02
2019-05-29T11:38:18.643Z,15.94
2019-05-29T11:39:18.659Z,15.86
2019-05-29T11:40:18.628Z,15.93
2019-05-29T11:41:26.217Z,15.90
2019-05-29T11:42:27.527Z,16.01
2019-05-29T11:43:19.604Z,16.00
2019-05-29T11:44:18.580Z,16.04
2019-05-29T11:45:18.574Z,16.07
2019-05-29T11:46:18.609Z,16.02
2019-05-29T11:47:18.613Z,16.01
2019-05-29T11:48:18.533Z,16.05
2019-05-29T11:49:18.517Z,15.97
2019-05-29T11:50:20.050Z,15.94
2019-05-29T11:51:18.500Z,15.96
2019-05-29T11:52:24.551Z,15.97
2019-05-29T11:53:19.537Z,15.96
2019-05-29T11:54:18.471Z,15.90
2019-05-29T11:55:18.452Z,15.84
2019-05-29T11:56:18.438Z,15.80
2019-05-29T11:57:18.424Z,15.86
2019-05-29T11:58:30.526Z,15.82
2019-05-29T11:59:19.413Z,15.78
2019-05-29T12:00:20.610Z,15.82
2019-05-29T12:01:18.381Z,15.92
2019-05-29T12:02:18.406Z,15.84
2019-05-29T12:03:18.378Z,15.74
2019-05-29T12:04:26.489Z,15.90
2019-05-29T12:05:19.538Z,15.97
2019-05-29T12:06:18.326Z,16.04
2019-05-29T12:07:18.317Z,16.09
2019-05-29T12:08:18.321Z,16.11
2019-05-29T12:09:32.144Z,16.14
2019-05-29T12:10:19.281Z,16.28
2019-05-29T12:11:18.268Z,16.30
2019-05-29T12:12:18.280Z,16.27
2019-05-29T12:13:18.269Z,16.20
2019-05-29T12:14:18.233Z,16.21
2019-05-29T12:15:18.923Z,16.17
2019-05-29T12:16:18.212Z,16.23
2019-05-29T12:17:18.199Z,16.25
2019-05-29T12:18:23.945Z,16.24
2019-05-29T12:19:19.201Z,16.05
2019-05-29T12:20:27.970Z,16.11
2019-05-29T12:21:19.158Z,16.20
2019-05-29T12:22:18.142Z,16.25
2019-05-29T12:23:25.873Z,16.28
2019-05-29T12:24:19.172Z,16.34
2019-05-29T12:25:18.124Z,16.31
2019-05-29T12:26:22.798Z,16.35
2019-05-29T12:27:19.090Z,16.25
2019-05-29T12:28:18.082Z,16.31
2019-05-29T12:29:18.074Z,16.46
2019-05-29T12:30:18.058Z,16.53
2019-05-29T12:31:18.056Z,16.48
2019-05-29T12:32:18.093Z,16.63
2019-05-29T12:33:18.055Z,16.57
2019-05-29T12:34:19.453Z,16.52
2019-05-29T12:35:17.999Z,16.50
2019-05-29T12:36:17.995Z,16.43
2019-05-29T12:37:17.996Z,16.56
2019-05-29T12:38:17.962Z,16.53
2019-05-29T12:39:17.978Z,16.53
2019-05-29T12:40:17.943Z,16.60
2019-05-29T12:41:17.934Z,16.64
2019-05-29T12:42:17.931Z,16.60
2019-05-29T12:43:27.211Z,16.63
2019-05-29T12:44:18.889Z,16.76
2019-05-29T12:45:17.887Z,16.76
2019-05-29T12:46:17.883Z,16.66
2019-05-29T12:47:17.867Z,16.56
2019-05-29T12:48:17.999Z,16.53
2019-05-29T12:49:17.891Z,16.60
2019-05-29T12:50:17.833Z,16.61
2019-05-29T12:51:17.819Z,16.50
2019-05-29T12:52:17.821Z,16.52